createdAt,value
2023-02-01T00:02:10.058Z,100409.56
2023-02-01T00:04:36.383Z,100415.31
2023-02-01T00:07:02.697Z,100413.06
2023-02-01T00:09:29.064Z,100424.22
2023-02-01T00:11:55.339Z,100424.41
2023-02-01T00:14:22.001Z,100429.84
2023-02-01T00:16:48.291Z,100422.97
2023-02-01T00:19:16.280Z,100419.47
2023-02-01T00:21:42.722Z,100424.63
2023-02-01T00:24:10.731Z,100421.13
2023-02-01T00:26:45.551Z,100430.28
2023-02-01T00:29:17.590Z,100431.09
2023-02-01T00:31:44.789Z,100412.47
2023-02-01T00:34:15.829Z,100419.13
2023-02-01T00:36:43.412Z,100424.19
2023-02-01T00:39:10.464Z,100421.94
2023-02-01T00:41:36.777Z,100408.38
2023-02-01T00:44:03.752Z,100421.94
2023-02-01T00:46:30.344Z,100415.25
2023-02-01T00:48:56.795Z,100416.31
2023-02-01T00:51:26.108Z,100423.97
2023-02-01T00:53:53.462Z,100429.00
2023-02-01T00:56:20.279Z,100430.91
2023-02-01T00:58:46.943Z,100428.44
2023-02-01T01:01:16.528Z,100424.31
2023-02-01T01:03:45.781Z,100421.78
2023-02-01T01:06:15.194Z,100434.41
2023-02-01T01:08:42.327Z,100428.38
2023-02-01T01:11:30.849Z,100413.97
2023-02-01T01:13:58.885Z,100440.00
2023-02-01T01:16:27.545Z,100438.19
2023-02-01T01:18:54.476Z,100433.25
2023-02-01T01:21:20.961Z,100429.69
2023-02-01T01:23:48.092Z,100423.69
2023-02-01T01:26:17.719Z,100423.72
2023-02-01T01:28:44.395Z,100412.03
2023-02-01T01:31:12.523Z,100418.69
2023-02-01T01:33:39.068Z,100419.47
2023-02-01T01:36:07.289Z,100410.91
2023-02-01T01:38:33.753Z,100405.72
2023-02-01T01:41:00.099Z,100403.13
2023-02-01T01:43:26.403Z,100396.66
2023-02-01T01:45:52.697Z,100387.44
2023-02-01T01:48:28.691Z,100384.84
2023-02-01T01:51:02.196Z,100377.25
2023-02-01T01:53:30.520Z,100385.72
2023-02-01T01:55:57.571Z,100377.28
2023-02-01T01:58:26.944Z,100390.66
2023-02-01T02:00:54.973Z,100388.91
2023-02-01T02:03:47.926Z,100395.56
2023-02-01T02:06:40.418Z,100378.81
2023-02-01T02:09:07.229Z,100387.34
2023-02-01T02:11:34.055Z,100399.16
2023-02-01T02:14:00.955Z,100391.69
2023-02-01T02:16:47.081Z,100396.88
2023-02-01T02:19:31.650Z,100392.56
2023-02-01T02:22:14.625Z,100402.09
2023-02-01T02:25:03.719Z,100389.31
2023-02-01T02:27:51.465Z,100392.41
2023-02-01T02:30:36.803Z,100390.38
2023-02-01T02:33:36.673Z,100387.47
2023-02-01T02:36:13.320Z,100375.78
2023-02-01T02:38:46.312Z,100374.22
2023-02-01T02:41:28.658Z,100368.19
2023-02-01T02:43:59.491Z,100372.44
2023-02-01T02:46:32.929Z,100368.19
2023-02-01T02:49:10.165Z,100365.59
2023-02-01T02:52:05.988Z,100363.16
2023-02-01T02:54:36.863Z,100355.50
2023-02-01T02:57:06.913Z,100362.06
2023-02-01T02:59:36.083Z,100373.41
2023-02-01T03:02:02.802Z,100365.66
2023-02-01T03:04:29.277Z,100367.31
2023-02-01T03:06:55.803Z,100363.13
2023-02-01T03:09:36.702Z,100360.53
2023-02-01T03:12:10.156Z,100358.91
2023-02-01T03:14:38.207Z,100341.81
2023-02-01T03:17:12.622Z,100343.59
2023-02-01T03:19:44.669Z,100352.16
2023-02-01T03:22:15.558Z,100347.06
2023-02-01T03:24:44.242Z,100346.25
2023-02-01T03:27:28.187Z,100331.78
2023-02-01T03:30:09.439Z,100328.50
2023-02-01T03:32:38.545Z,100327.53
2023-02-01T03:35:05.282Z,100321.50
2023-02-01T03:37:31.674Z,100321.63
2023-02-01T03:40:02.190Z,100313.97
2023-02-01T03:42:49.019Z,100315.59
2023-02-01T03:45:41.339Z,100310.56
2023-02-01T03:48:08.034Z,100320.94
2023-02-01T03:50:37.614Z,100311.63
2023-02-01T03:53:11.955Z,100313.28
2023-02-01T03:55:38.731Z,100306.44
2023-02-01T03:58:12.711Z,100307.28
2023-02-01T04:00:39.931Z,100305.63
2023-02-01T04:03:07.977Z,100303.00
2023-02-01T04:05:35.056Z,100308.00
2023-02-01T04:08:01.547Z,100311.66
2023-02-01T04:10:27.955Z,100302.47
2023-02-01T04:12:54.298Z,100314.97
2023-02-01T04:15:20.640Z,100310.03
2023-02-01T04:17:46.964Z,100314.97
2023-02-01T04:20:13.384Z,100312.72
2023-02-01T04:22:39.705Z,100312.75
2023-02-01T04:25:06.709Z,100312.78
2023-02-01T04:27:33.033Z,100306.91
2023-02-01T04:29:59.334Z,100309.50
2023-02-01T04:32:25.621Z,100317.38
2023-02-01T04:34:52.045Z,100309.88
2023-02-01T04:37:18.364Z,100313.22
2023-02-01T04:39:44.689Z,100297.91
2023-02-01T04:42:11.042Z,100302.09
2023-02-01T04:44:37.365Z,100297.69
2023-02-01T04:47:03.705Z,100300.47
2023-02-01T04:49:29.988Z,100304.69
2023-02-01T04:51:56.269Z,100293.78
2023-02-01T04:54:22.556Z,100298.13
2023-02-01T04:56:48.847Z,100293.69
2023-02-01T04:59:15.160Z,100286.16
2023-02-01T05:01:41.529Z,100290.53
2023-02-01T05:04:07.978Z,100296.31
2023-02-01T05:06:34.308Z,100288.84
2023-02-01T05:09:00.624Z,100299.06
2023-02-01T05:11:26.915Z,100290.72
2023-02-01T05:13:53.285Z,100286.41
2023-02-01T05:16:19.667Z,100286.47
2023-02-01T05:18:46.410Z,100279.72
2023-02-01T05:21:12.759Z,100265.47
2023-02-01T05:23:39.031Z,100277.22
2023-02-01T05:26:05.406Z,100271.31
2023-02-01T05:28:31.679Z,100267.09
2023-02-01T05:30:58.026Z,100273.84
2023-02-01T05:33:24.375Z,100255.25
2023-02-01T05:35:50.657Z,100266.38
2023-02-01T05:38:16.920Z,100254.56
2023-02-01T05:40:43.209Z,100255.38
2023-02-01T05:43:09.491Z,100260.47
2023-02-01T05:45:35.917Z,100255.31
2023-02-01T05:48:02.233Z,100257.84
2023-02-01T05:50:28.534Z,100263.75
2023-02-01T05:52:54.864Z,100263.97
2023-02-01T05:55:21.154Z,100251.97
2023-02-01T05:57:47.470Z,100262.19
2023-02-01T06:00:14.257Z,100254.66
2023-02-01T06:02:40.660Z,100254.56
2023-02-01T06:05:07.618Z,100248.84
2023-02-01T06:07:33.945Z,100239.47
2023-02-01T06:10:00.227Z,100237.06
2023-02-01T06:12:26.552Z,100237.06
2023-02-01T06:14:52.823Z,100243.75
2023-02-01T06:17:19.085Z,100243.78
2023-02-01T06:19:45.400Z,100243.94
2023-02-01T06:22:11.690Z,100244.66
2023-02-01T06:24:37.960Z,100242.13
2023-02-01T06:27:04.328Z,100232.78
2023-02-01T06:29:30.671Z,100250.59
2023-02-01T06:31:57.064Z,100250.56
2023-02-01T06:34:23.405Z,100251.16
2023-02-01T06:36:49.894Z,100239.19
2023-02-01T06:39:16.188Z,100249.97
2023-02-01T06:41:47.347Z,100260.88
2023-02-01T06:44:13.794Z,100249.94
2023-02-01T06:46:40.605Z,100245.59
2023-02-01T06:49:06.935Z,100242.31
2023-02-01T06:51:33.277Z,100243.81
2023-02-01T06:53:59.709Z,100246.31
2023-02-01T06:56:26.418Z,100233.56
2023-02-01T06:58:52.970Z,100236.03
2023-02-01T07:01:19.603Z,100222.53
2023-02-01T07:03:51.744Z,100224.97
2023-02-01T07:06:18.922Z,100219.09
2023-02-01T07:08:45.366Z,100207.13
2023-02-01T07:11:13.937Z,100213.94
2023-02-01T07:13:40.281Z,100202.16
2023-02-01T07:16:10.261Z,100213.16
2023-02-01T07:18:36.563Z,100191.13
2023-02-01T07:21:02.905Z,100188.63
2023-02-01T07:23:29.503Z,100192.09
2023-02-01T07:25:57.949Z,100195.47
2023-02-01T07:28:24.893Z,100196.31
2023-02-01T07:30:51.676Z,100193.03
2023-02-01T07:33:22.562Z,100192.94
2023-02-01T07:35:50.120Z,100188.59
2023-02-01T07:38:17.311Z,100181.94
2023-02-01T07:40:44.232Z,100180.31
2023-02-01T07:43:10.590Z,100175.16
2023-02-01T07:45:37.650Z,100172.81
2023-02-01T07:48:04.495Z,100168.59
2023-02-01T07:50:31.145Z,100161.03
2023-02-01T07:53:00.272Z,100171.25
2023-02-01T07:55:26.574Z,100162.75
2023-02-01T07:57:53.231Z,100159.34
2023-02-01T08:00:20.106Z,100161.94
2023-02-01T08:02:46.388Z,100166.91
2023-02-01T08:05:12.697Z,100170.03
2023-02-01T08:07:38.997Z,100174.28
2023-02-01T08:10:05.808Z,100177.47
2023-02-01T08:12:32.126Z,100192.47
2023-02-01T08:14:58.422Z,100182.03
2023-02-01T08:17:24.754Z,100176.75
2023-02-01T08:19:51.105Z,100180.03
2023-02-01T08:22:17.407Z,100173.88
2023-02-01T08:24:43.735Z,100176.41
2023-02-01T08:27:10.052Z,100181.44
2023-02-01T08:29:36.384Z,100185.56
2023-02-01T08:32:02.720Z,100187.16
2023-02-01T08:34:29.272Z,100196.31
2023-02-01T08:36:55.592Z,100186.03
2023-02-01T08:39:21.880Z,100198.53
2023-02-01T08:41:48.173Z,100195.22
2023-02-01T08:44:14.447Z,100196.84
2023-02-01T08:46:40.768Z,100203.69
2023-02-01T08:49:07.072Z,100193.69
2023-02-01T08:51:33.381Z,100193.69
2023-02-01T08:53:59.673Z,100193.66
2023-02-01T08:56:26.014Z,100198.84
2023-02-01T08:58:52.302Z,100196.16
2023-02-01T09:01:18.741Z,100197.81
2023-02-01T09:03:46.651Z,100202.84
2023-02-01T09:06:15.213Z,100200.44
2023-02-01T09:08:41.856Z,100211.41
2023-02-01T09:11:13.400Z,100199.63
2023-02-01T09:13:39.754Z,100202.16
2023-02-01T09:16:06.508Z,100207.25
2023-02-01T09:18:33.042Z,100193.03
2023-02-01T09:20:59.387Z,100212.47
2023-02-01T09:23:25.724Z,100208.34
2023-02-01T09:25:52.153Z,100210.91
2023-02-01T09:28:19.208Z,100217.78
2023-02-01T09:30:45.946Z,100229.69
2023-02-01T09:33:12.365Z,100221.50
2023-02-01T09:35:38.690Z,100219.97
2023-02-01T09:38:05.020Z,100231.06
2023-02-01T09:40:31.959Z,100236.16
2023-02-01T09:42:58.247Z,100232.00
2023-02-01T09:45:40.105Z,100238.66
2023-02-01T09:48:15.200Z,100252.38
2023-02-01T09:50:46.800Z,100244.69
2023-02-01T09:53:22.166Z,100252.34
2023-02-01T09:55:51.658Z,100253.19
2023-02-01T09:58:30.868Z,100252.50
2023-02-01T10:01:02.008Z,100254.31
2023-02-01T10:03:32.688Z,100255.94
2023-02-01T10:06:30.202Z,100262.84
2023-02-01T10:09:09.192Z,100257.75
2023-02-01T10:11:53.547Z,100251.88
2023-02-01T10:14:38.519Z,100265.38
2023-02-01T10:17:24.976Z,100254.41
2023-02-01T10:19:56.946Z,100266.28
2023-02-01T10:23:10.370Z,100267.13
2023-02-01T10:25:49.236Z,100268.78
2023-02-01T10:28:18.636Z,100289.00
2023-02-01T10:30:47.752Z,100271.22
2023-02-01T10:33:21.990Z,100276.28
2023-02-01T10:35:55.143Z,100273.53
2023-02-01T10:38:27.957Z,100283.59
2023-02-01T10:40:58.963Z,100277.81
2023-02-01T10:43:25.348Z,100283.75
2023-02-01T10:45:52.038Z,100275.56
2023-02-01T10:48:18.337Z,100267.13
2023-02-01T10:50:54.615Z,100268.34
2023-02-01T10:53:25.527Z,100248.34
2023-02-01T10:55:54.518Z,100259.50
2023-02-01T10:58:32.074Z,100259.47
2023-02-01T11:01:01.904Z,100254.41
2023-02-01T11:03:33.532Z,100261.09
2023-02-01T11:06:00.795Z,100264.16
2023-02-01T11:08:27.347Z,100260.75
2023-02-01T11:11:03.051Z,100256.38
2023-02-01T11:13:33.040Z,100263.09
2023-02-01T11:16:02.320Z,100253.78
2023-02-01T11:18:31.812Z,100249.56
2023-02-01T11:20:59.956Z,100251.50
2023-02-01T11:23:29.653Z,100248.38
2023-02-01T11:25:58.807Z,100250.31
2023-02-01T11:28:31.980Z,100242.00
2023-02-01T11:31:02.535Z,100252.03
2023-02-01T11:33:33.066Z,100243.59
2023-02-01T11:35:59.535Z,100236.00
2023-02-01T11:38:31.877Z,100236.19
2023-02-01T11:41:21.853Z,100228.84
2023-02-01T11:44:01.507Z,100225.78
2023-02-01T11:46:36.738Z,100209.81
2023-02-01T11:49:25.892Z,100212.31
2023-02-01T11:52:06.689Z,100218.16
2023-02-01T11:55:20.615Z,100211.53
2023-02-01T11:57:55.080Z,100201.34
2023-02-01T12:00:31.804Z,100203.88
2023-02-01T12:03:29.268Z,100209.00
2023-02-01T12:06:18.524Z,100207.25
2023-02-01T12:09:06.360Z,100205.66
2023-02-01T12:11:32.728Z,100209.16
2023-02-01T12:14:35.925Z,100193.13
2023-02-01T12:17:39.824Z,100194.22
2023-02-01T12:20:11.809Z,100182.63
2023-02-01T12:23:00.116Z,100188.69
2023-02-01T12:25:40.950Z,100166.69
2023-02-01T12:28:26.655Z,100160.63
2023-02-01T12:31:27.214Z,100160.66
2023-02-01T12:34:25.826Z,100159.81
2023-02-01T12:37:01.261Z,100159.00
2023-02-01T12:39:39.713Z,100149.63
2023-02-01T12:42:30.034Z,100147.03
2023-02-01T12:45:33.756Z,100146.19
2023-02-01T12:48:31.040Z,100140.25
2023-02-01T12:51:03.149Z,100128.22
2023-02-01T12:53:55.145Z,100131.56
2023-02-01T12:56:24.428Z,100128.03
2023-02-01T12:58:54.396Z,100127.88
2023-02-01T13:01:37.948Z,100127.06
2023-02-01T13:04:20.176Z,100125.38
2023-02-01T13:06:51.937Z,100126.25
2023-02-01T13:09:26.393Z,100140.66
2023-02-01T13:11:58.423Z,100152.50
2023-02-01T13:14:36.513Z,100154.97
2023-02-01T13:17:11.651Z,100156.16
2023-02-01T13:19:55.066Z,100152.91
2023-02-01T13:22:28.345Z,100207.09
2023-02-01T13:25:06.434Z,100201.28
2023-02-01T13:27:33.956Z,100203.41
2023-02-01T13:30:07.089Z,100161.25
2023-02-01T13:33:51.529Z,100173.09
2023-02-01T13:35:56.940Z,100158.78
2023-02-01T13:38:57.424Z,100156.72
2023-02-01T13:41:33.406Z,100153.34
2023-02-01T13:44:05.110Z,100139.84
2023-02-01T13:46:46.377Z,100145.94
2023-02-01T13:49:32.675Z,100127.59
2023-02-01T13:52:00.063Z,100121.84
2023-02-01T13:54:40.927Z,100118.06
2023-02-01T13:57:40.788Z,100112.03
2023-02-01T14:00:25.467Z,100106.81
2023-02-01T14:03:00.656Z,100085.34
2023-02-01T14:05:27.104Z,100094.19
2023-02-01T14:08:05.599Z,100084.44
2023-02-01T14:10:48.131Z,100087.94
2023-02-01T14:13:31.959Z,100082.03
2023-02-01T14:16:04.369Z,100076.97
2023-02-01T14:18:36.756Z,100081.25
2023-02-01T14:21:34.808Z,100072.06
2023-02-01T14:24:21.703Z,100086.44
2023-02-01T14:26:50.809Z,100079.72
2023-02-01T14:29:21.035Z,100076.19
2023-02-01T14:31:59.630Z,100057.63
2023-02-01T14:34:50.739Z,100045.66
2023-02-01T14:37:20.048Z,100042.97
2023-02-01T14:39:46.274Z,100048.88
2023-02-01T14:42:31.311Z,100042.13
2023-02-01T14:45:20.427Z,100037.03
2023-02-01T14:47:48.829Z,100031.97
2023-02-01T14:50:27.601Z,100037.13
2023-02-01T14:53:09.195Z,100029.66
2023-02-01T14:55:56.216Z,100028.91
2023-02-01T14:58:25.283Z,100028.16
2023-02-01T15:00:57.498Z,100022.25
2023-02-01T15:03:35.881Z,100024.03
2023-02-01T15:06:02.664Z,100014.72
2023-02-01T15:08:33.017Z,100015.59
2023-02-01T15:11:04.608Z,100001.47
2023-02-01T15:13:31.648Z,99995.53
2023-02-01T15:16:16.381Z,99987.06
2023-02-01T15:18:42.796Z,99983.72
2023-02-01T15:21:28.618Z,99978.69
2023-02-01T15:24:11.836Z,99989.53
2023-02-01T15:26:38.198Z,99987.69
2023-02-01T15:29:04.555Z,99973.13
2023-02-01T15:31:41.646Z,99993.19
2023-02-01T15:34:09.629Z,100002.41
2023-02-01T15:36:36.019Z,100000.59
2023-02-01T15:39:22.798Z,100003.84
2023-02-01T15:42:12.744Z,100011.34
2023-02-01T15:44:41.935Z,100017.22
2023-02-01T15:47:24.886Z,100024.84
2023-02-01T15:49:54.179Z,100015.34
2023-02-01T15:52:40.767Z,100014.41
2023-02-01T15:55:18.330Z,100014.13
2023-02-01T15:57:45.337Z,100023.28
2023-02-01T16:00:28.179Z,100034.16
2023-02-01T16:03:03.191Z,100032.41
2023-02-01T16:05:44.031Z,100031.47
2023-02-01T16:08:13.051Z,100053.06
2023-02-01T16:10:42.185Z,100069.69
2023-02-01T16:13:08.738Z,100066.69
2023-02-01T16:15:35.096Z,100065.34
2023-02-01T16:18:01.448Z,100058.00
2023-02-01T16:20:27.847Z,100056.84
2023-02-01T16:22:54.183Z,100061.69
2023-02-01T16:25:20.507Z,100063.28
2023-02-01T16:27:46.884Z,100064.09
2023-02-01T16:30:13.609Z,100049.03
2023-02-01T16:32:40.009Z,100044.78
2023-02-01T16:35:28.276Z,100039.00
2023-02-01T16:37:55.092Z,100053.47
2023-02-01T16:40:22.407Z,100062.69
2023-02-01T16:42:51.126Z,100043.38
2023-02-01T16:45:17.475Z,100041.78
2023-02-01T16:47:50.779Z,100043.34
2023-02-01T16:50:23.495Z,100051.97
2023-02-01T16:52:51.336Z,100073.00
2023-02-01T16:55:19.811Z,100075.00
2023-02-01T16:57:49.099Z,100068.16
2023-02-01T17:00:23.998Z,100084.16
2023-02-01T17:02:51.113Z,100078.31
2023-02-01T17:05:17.600Z,100068.16
2023-02-01T17:07:43.960Z,100089.13
2023-02-01T17:10:32.579Z,100084.88
2023-02-01T17:12:59.516Z,100085.84
2023-02-01T17:15:29.665Z,100094.25
2023-02-01T17:17:56.004Z,100090.13
2023-02-01T17:20:24.748Z,100092.72
2023-02-01T17:22:52.001Z,100100.31
2023-02-01T17:25:21.336Z,100090.38
2023-02-01T17:27:48.951Z,100088.66
2023-02-01T17:30:15.467Z,100095.44
2023-02-01T17:32:42.195Z,100097.19
2023-02-01T17:35:29.290Z,100096.38
2023-02-01T17:37:55.869Z,100102.31
2023-02-01T17:40:22.239Z,100103.16
2023-02-01T17:42:48.572Z,100109.25
2023-02-01T17:45:32.812Z,100113.47
2023-02-01T17:47:59.275Z,100106.81
2023-02-01T17:50:27.989Z,100105.28
2023-02-01T17:52:54.294Z,100114.56
2023-02-01T17:55:23.876Z,100117.09
2023-02-01T17:57:50.537Z,100117.19
2023-02-01T18:00:18.630Z,100119.84
2023-02-01T18:02:45.733Z,100133.28
2023-02-01T18:05:29.351Z,100119.94
2023-02-01T18:07:55.782Z,100131.88
2023-02-01T18:10:22.172Z,100126.03
2023-02-01T18:12:48.625Z,100140.50
2023-02-01T18:15:18.129Z,100137.16
2023-02-01T18:17:44.563Z,100136.38
2023-02-01T18:20:19.348Z,100147.34
2023-02-01T18:22:46.679Z,100150.03
2023-02-01T18:25:27.205Z,100143.22
2023-02-01T18:27:55.630Z,100152.59
2023-02-01T18:30:24.547Z,100144.25
2023-02-01T18:32:51.302Z,100145.06
2023-02-01T18:35:24.138Z,100140.03
2023-02-01T18:37:51.785Z,100146.03
2023-02-01T18:40:19.431Z,100148.66
2023-02-01T18:42:46.027Z,100133.41
2023-02-01T18:45:26.974Z,100145.22
2023-02-01T18:47:53.483Z,100139.19
2023-02-01T18:50:20.274Z,100152.72
2023-02-01T18:52:46.979Z,100150.22
2023-02-01T18:55:13.881Z,100157.19
2023-02-01T18:57:40.818Z,100150.47
2023-02-01T19:00:09.245Z,100157.19
2023-02-01T19:02:35.756Z,100148.81
2023-02-01T19:05:02.079Z,100156.41
2023-02-01T19:07:28.525Z,100154.66
2023-02-01T19:09:54.820Z,100148.84
2023-02-01T19:12:21.245Z,100154.81
2023-02-01T19:14:47.593Z,100155.78
2023-02-01T19:17:13.926Z,100165.06
2023-02-01T19:19:41.926Z,100160.84
2023-02-01T19:22:08.391Z,100165.91
2023-02-01T19:24:34.669Z,100166.81
2023-02-01T19:27:00.965Z,100159.28
2023-02-01T19:29:27.361Z,100163.44
2023-02-01T19:31:53.718Z,100167.72
2023-02-01T19:34:20.032Z,100177.94
2023-02-01T19:36:46.371Z,100177.97
2023-02-01T19:39:12.678Z,100165.28
2023-02-01T19:41:38.976Z,100174.59
2023-02-01T19:44:05.550Z,100178.81
2023-02-01T19:46:31.907Z,100182.31
2023-02-01T19:48:58.279Z,100180.66
2023-02-01T19:51:24.646Z,100189.97
2023-02-01T19:53:50.967Z,100181.41
2023-02-01T19:56:17.271Z,100193.25
2023-02-01T19:58:43.574Z,100189.88
2023-02-01T20:01:09.014Z,100195.78
2023-02-01T20:03:35.352Z,100189.19
2023-02-01T20:06:01.844Z,100182.41
2023-02-01T20:08:28.158Z,100189.06
2023-02-01T20:10:54.491Z,100178.13
2023-02-01T20:13:20.798Z,100190.84
2023-02-01T20:15:47.312Z,100179.03
2023-02-01T20:18:13.645Z,100172.28
2023-02-01T20:20:40.951Z,100190.00
2023-02-01T20:23:07.333Z,100187.47
2023-02-01T20:25:36.408Z,100188.28
2023-02-01T20:28:02.740Z,100187.50
2023-02-01T20:30:29.096Z,100184.19
2023-02-01T20:32:55.407Z,100180.75
2023-02-01T20:35:22.032Z,100174.84
2023-02-01T20:37:48.569Z,100181.59
2023-02-01T20:40:14.911Z,100179.94
2023-02-01T20:42:41.237Z,100197.78
2023-02-01T20:45:08.115Z,100189.31
2023-02-01T20:47:34.447Z,100186.66
2023-02-01T20:50:00.741Z,100193.38
2023-02-01T20:52:27.050Z,100178.16
2023-02-01T20:54:53.342Z,100190.81
2023-02-01T20:57:19.616Z,100190.72
2023-02-01T20:59:45.937Z,100192.53
2023-02-01T21:02:12.246Z,100199.25
2023-02-01T21:04:38.595Z,100191.63
2023-02-01T21:07:04.873Z,100205.09
2023-02-01T21:09:31.186Z,100214.38
2023-02-01T21:11:57.522Z,100221.19
2023-02-01T21:14:23.850Z,100211.09
2023-02-01T21:16:50.168Z,100201.66
2023-02-01T21:19:17.820Z,100213.47
2023-02-01T21:21:44.344Z,100213.53
2023-02-01T21:24:10.671Z,100227.91
2023-02-01T21:26:36.997Z,100219.38
2023-02-01T21:29:03.284Z,100215.19
2023-02-01T21:31:29.607Z,100226.94
2023-02-01T21:33:55.933Z,100212.50
2023-02-01T21:36:22.368Z,100219.22
2023-02-01T21:38:50.210Z,100215.91
2023-02-01T21:41:21.857Z,100208.97
2023-02-01T21:43:48.152Z,100226.69
2023-02-01T21:46:14.490Z,100217.34
2023-02-01T21:49:04.888Z,100219.94
2023-02-01T21:51:28.171Z,100221.59
2023-02-01T21:53:54.525Z,100221.47
2023-02-01T21:56:20.820Z,100218.13
2023-02-01T21:58:47.169Z,100218.06
2023-02-01T22:01:13.562Z,100216.25
2023-02-01T22:03:39.908Z,100202.59
2023-02-01T22:06:06.504Z,100224.66
2023-02-01T22:08:38.782Z,100209.31
2023-02-01T22:11:05.628Z,100222.84
2023-02-01T22:13:31.976Z,100232.97
2023-02-01T22:15:58.374Z,100225.41
2023-02-01T22:18:24.630Z,100225.38
2023-02-01T22:20:50.913Z,100227.25
2023-02-01T22:23:17.214Z,100232.31
2023-02-01T22:25:43.523Z,100233.94
2023-02-01T22:28:30.355Z,100237.22
2023-02-01T22:31:01.708Z,100243.38
2023-02-01T22:33:28.334Z,100234.09
2023-02-01T22:35:54.705Z,100235.06
2023-02-01T22:38:21.012Z,100226.53
2023-02-01T22:40:57.588Z,100242.84
2023-02-01T22:43:24.449Z,100224.25
2023-02-01T22:45:51.137Z,100232.66
2023-02-01T22:48:17.641Z,100227.75
2023-02-01T22:50:44.709Z,100218.44
2023-02-01T22:53:11.381Z,100211.69
2023-02-01T22:55:38.148Z,100220.88
2023-02-01T22:58:04.464Z,100219.13
2023-02-01T23:00:30.793Z,100215.03
2023-02-01T23:02:57.097Z,100215.94
2023-02-01T23:05:23.747Z,100205.69
2023-02-01T23:07:50.953Z,100193.03
2023-02-01T23:10:18.646Z,100177.88
2023-02-01T23:12:48.111Z,100175.38
2023-02-01T23:15:15.001Z,100172.78
2023-02-01T23:17:42.507Z,100178.66
2023-02-01T23:20:12.855Z,100181.41
2023-02-01T23:22:39.135Z,100172.91
2023-02-01T23:25:05.879Z,100159.50
2023-02-01T23:27:32.193Z,100164.41
2023-02-01T23:29:58.505Z,100139.13
2023-02-01T23:32:24.869Z,100151.88
2023-02-01T23:34:51.152Z,100163.78
2023-02-01T23:37:17.422Z,100143.44
2023-02-01T23:39:43.709Z,100152.72
2023-02-01T23:42:10.040Z,100146.75
2023-02-01T23:44:36.319Z,100139.91
2023-02-01T23:47:02.657Z,100140.78
2023-02-01T23:49:28.943Z,100134.94
2023-02-01T23:51:55.340Z,100139.03
2023-02-01T23:54:23.171Z,100146.56
2023-02-01T23:56:50.232Z,100137.38
2023-02-01T23:59:19.102Z,100122.19
